AirNav   ProFlight Series 2 Aviation Headset
 
 1191 users online  

12OH McGregor Airfield
Brookville, Ohio, USA

GOING TO BROOKVILLE?


FAA INFORMATION EFFECTIVE 08 OCTOBER 2020

Location

FAA Identifier: 12OH
Lat/Long: 39-50-05.1990N 084-20-04.8040W
39-50.086650N 084-20.080067W
39.8347775,-84.3346678
(estimated)
Elevation: 940 ft. / 286.5 m (surveyed)
Variation: 04W (1990)
From city: 4 miles E of BROOKVILLE, OH
Time zone: UTC -4 (UTC -5 during Standard Time)
Zip code: 45315

Airport Operations

Airport use: Private use, PERSONAL USE.
Activation date: 10/1994
Control tower: no
ARTCC: INDIANAPOLIS CENTER
FSS: DAYTON FLIGHT SERVICE STATION
Attendance: UNATNDD
Wind indicator: yes
Segmented circle: no

Airport Communications

WX ASOS at DAY (7 nm NE): PHONE 937-415-6819
WX ASOS at MGY (16 nm S): 118.375 (937-885-2171)
WX AWOS-3 at I19 (18 nm SE): 118.525 (937-372-4668)
WX AWOS-3 at MWO (18 nm S): 120.025 (513-422-3505)

Nearby radio navigation aids

VOR radial/distance  VOR name  Freq  Var
DQNr166/11.3DAYTON VOR/DME114.5001W
RODr211/30.3ROSEWOOD VORTAC117.5005W
MXQr319/34.6MIDWEST VOR/DME112.9004W

 
NDB name  Hdg/Dist  Freq  Var  ID
BRUNYat field31506WAT .- -
HOOK FIELD018/20.823904WHKF .... -.- ..-.
CLARK COUNTY269/25.734104WCCJ -.-. -.-. .---

Airport Services

Runway Information

Runway 17/35

Dimensions: 1030 x 100 ft. / 314 x 30 m
Surface: turf
RUNWAY 17  RUNWAY 35
Traffic pattern: rightleft
Obstructions: none50 ft. pline, marked, 430 ft. from runway

Airport Ownership and Management from official FAA records

Ownership: Privately-owned
Owner: LARRY MCGREGOR
7317 WESTBROOK RD
BROOKVILLE, OH 45309
Phone 513-854-3888
Manager: LARRY MCGREGOR
7317 WESTBROOK RD
BROOKVILLE, OH 45309
Phone 513-854-3888

Airport Operational Statistics

Aircraft based on the field: 1
Single engine airplanes: 1
    

Additional Remarks

FOR CD CTC COLUMBUS APCH AT 614-338-8537

Instrument Procedures

There are no published instrument procedures at 12OH.

Some nearby airports with instrument procedures:

3I7 - Dayton-Phillipsburg Airport (6 nm NW)
KDAY - James M Cox Dayton International Airport (7 nm NE)
KFFO - Wright-Patterson Air Force Base (13 nm E)
KMGY - Dayton-Wright Brothers Airport (16 nm S)
I19 - Greene County-Lewis A Jackson Regional Airport (18 nm SE)
KMWO - Middletown Regional Airport/Hook Field (18 nm S)
I17 - Piqua Airport - Hartzell Field (20 nm N)
 
Loc | Ops | Rwys | IFR | FBO | Links
Com | Nav | Svcs | Stats | Notes
Area around 12OH (McGregor Airfield)
 
Road maps at: MapQuest Bing Google
 
Aerial photo
No photo
 
Sectional chart

 
Airport distance calculator
Flying to McGregor Airfield? Find the distance to fly.

From to 12OH

Sunrise and sunset
Times for 21-Oct-2020
 Local
(UTC-4)
 Zulu
(UTC)
Morning civil twilight07:2911:29
Sunrise07:5611:56
Sunset18:4822:48
Evening civil twilight19:1523:15

Current date and time
Zulu (UTC)  21-Oct-2020 22:58:39
Local (UTC-4)  21-Oct-2020 18:58:39
 
METAR
KDAY 
7nm NE 
212251Z 07004KT 9SM OVC014 16/16 A3021 RMK AO2 $
KFFO 
14nm E 
212156Z 02003KT 5SM BR OVC014 17/15 A3019 RMK AO2A SLP224 T01680151
KMGY 
15nm S 
212253Z AUTO 07005KT 10SM OVC008 18/16 A3019 RMK AO2 SLP220 T01780161
KMWO 
18nm S 
212235Z AUTO 07003KT 10SM SCT011 SCT033 BKN047 18/17 A3020 RMK AO2 T01770167
TAF
KDAY 
7nm NE 
211934Z 2120/2218 30006KT P6SM OVC013 TEMPO 2120/2122 OVC005 FM212200 VRB05KT P6SM BKN022 FM220000 VRB05KT P6SM SCT022 FM220600 16005KT P6SM SCT100 FM221400 18008KT P6SM SCT045
KFFO 
14nm E 
212045Z 2120/2301 VRB06KT 9999 BKN007 OVC011 QNH3019INS TEMPO 2120/2122 4800 -DZ BR BKN012 BECMG 2121/2122 VRB06KT 9999 BKN012 QNH3017INS BECMG 2205/2206 VRB06KT 4800 BR SCT011 QNH3015INS BECMG 2207/2208 17006KT 1600 BR SCT100 QNH3013INS BECMG 2214/2215 19009KT 9999 NSW SCT035 QNH3009INS BECMG 2223/2224 20009KT 9999 SKC QNH3003INS TX23/2218Z TN14/2211Z
NOTAMs
Click for the latest NOTAMs
NOTAMs are issued by the DoD/FAA and will open in a separate window not controlled by AirNav.

 

 
 

Would you like to see your business listed on this page?

 If your business provides an interesting product or service to pilots, flight crews, aircraft, or users of the McGregor Airfield, you should consider listing it here.  To start the listing process, click on the button below
 
Add a business
 

Other Pages about McGregor Airfield

Update a link
 
Copyright © AirNav, LLC. All rights reserved. Privacy Policy  Contact